sensor_id;sensor_type;location;lat;lon;timestamp;pressure;altitude;pressure_sealevel;temperature;humidity
59608;BME280;45426;44.726;10.390;2023-07-28T00:01:52;100299.66;;;22.74;100.00
59608;BME280;45426;44.726;10.390;2023-07-28T00:04:18;100296.72;;;22.57;100.00
59608;BME280;45426;44.726;10.390;2023-07-28T00:06:43;100299.94;;;22.21;100.00
59608;BME280;45426;44.726;10.390;2023-07-28T00:09:09;100294.53;;;22.10;100.00
59608;BME280;45426;44.726;10.390;2023-07-28T00:11:34;100285.38;;;22.48;100.00
59608;BME280;45426;44.726;10.390;2023-07-28T00:14:00;100302.56;;;22.36;100.00
59608;BME280;45426;44.726;10.390;2023-07-28T00:16:25;100298.03;;;22.18;100.00
59608;BME280;45426;44.726;10.390;2023-07-28T00:18:50;100287.56;;;22.33;100.00
59608;BME280;45426;44.726;10.390;2023-07-28T00:21:16;100276.97;;;21.94;100.00
59608;BME280;45426;44.726;10.390;2023-07-28T00:23:41;100268.34;;;22.22;100.00
59608;BME280;45426;44.726;10.390;2023-07-28T00:26:07;100270.94;;;22.64;100.00
59608;BME280;45426;44.726;10.390;2023-07-28T00:28:32;100260.72;;;22.57;100.00
59608;BME280;45426;44.726;10.390;2023-07-28T00:30:57;100257.81;;;22.68;100.00
59608;BME280;45426;44.726;10.390;2023-07-28T00:33:23;100261.69;;;22.16;100.00
59608;BME280;45426;44.726;10.390;2023-07-28T00:35:49;100263.97;;;22.21;100.00
59608;BME280;45426;44.726;10.390;2023-07-28T00:38:14;100265.06;;;22.31;100.00
59608;BME280;45426;44.726;10.390;2023-07-28T00:40:40;100268.22;;;21.99;100.00
59608;BME280;45426;44.726;10.390;2023-07-28T00:43:05;100267.50;;;21.95;100.00
59608;BME280;45426;44.726;10.390;2023-07-28T00:45:32;100257.25;;;21.91;100.00
59608;BME280;45426;44.726;10.390;2023-07-28T00:47:58;100264.66;;;22.02;100.00
59608;BME280;45426;44.726;10.390;2023-07-28T00:50:24;100262.56;;;22.09;100.00
59608;BME280;45426;44.726;10.390;2023-07-28T00:52:50;100257.75;;;22.14;100.00
59608;BME280;45426;44.726;10.390;2023-07-28T00:55:16;100252.41;;;22.34;100.00
59608;BME280;45426;44.726;10.390;2023-07-28T00:57:42;100245.00;;;21.93;100.00
59608;BME280;45426;44.726;10.390;2023-07-28T01:00:08;100245.66;;;22.04;100.00
59608;BME280;45426;44.726;10.390;2023-07-28T01:02:34;100242.25;;;21.93;100.00
59608;BME280;45426;44.726;10.390;2023-07-28T01:05:00;100242.41;;;21.78;100.00
59608;BME280;45426;44.726;10.390;2023-07-28T01:07:46;100241.63;;;21.78;100.00
59608;BME280;45426;44.726;10.390;2023-07-28T01:10:24;100237.31;;;21.73;100.00
59608;BME280;45426;44.726;10.390;2023-07-28T01:12:51;100236.66;;;21.96;100.00
59608;BME280;45426;44.726;10.390;2023-07-28T01:15:17;100232.13;;;22.09;100.00
59608;BME280;45426;44.726;10.390;2023-07-28T01:17:42;100235.53;;;21.90;100.00
59608;BME280;45426;44.726;10.390;2023-07-28T01:20:08;100235.22;;;21.84;100.00
59608;BME280;45426;44.726;10.390;2023-07-28T01:27:34;100257.25;;;21.91;100.00
59608;BME280;45426;44.726;10.390;2023-07-28T01:30:00;100259.19;;;21.95;100.00
59608;BME280;45426;44.726;10.390;2023-07-28T01:32:26;100254.97;;;21.86;100.00
59608;BME280;45426;44.726;10.390;2023-07-28T01:34:51;100251.81;;;21.84;100.00
59608;BME280;45426;44.726;10.390;2023-07-28T01:37:17;100255.03;;;21.79;100.00
59608;BME280;45426;44.726;10.390;2023-07-28T01:39:42;100242.19;;;21.96;100.00
59608;BME280;45426;44.726;10.390;2023-07-28T01:42:08;100249.97;;;22.05;100.00
59608;BME280;45426;44.726;10.390;2023-07-28T01:44:33;100249.31;;;21.94;100.00
59608;BME280;45426;44.726;10.390;2023-07-28T01:46:58;100259.94;;;21.64;100.00
59608;BME280;45426;44.726;10.390;2023-07-28T01:49:24;100245.25;;;21.71;100.00
59608;BME280;45426;44.726;10.390;2023-07-28T01:51:49;100236.88;;;21.78;100.00
59608;BME280;45426;44.726;10.390;2023-07-28T01:54:15;100244.06;;;22.03;100.00
59608;BME280;45426;44.726;10.390;2023-07-28T01:56:40;100241.53;;;21.85;100.00
59608;BME280;45426;44.726;10.390;2023-07-28T01:59:05;100244.63;;;21.90;100.00
59608;BME280;45426;44.726;10.390;2023-07-28T02:01:31;100235.31;;;22.08;100.00
59608;BME280;45426;44.726;10.390;2023-07-28T02:03:56;100240.09;;;21.73;100.00
59608;BME280;45426;44.726;10.390;2023-07-28T02:06:22;100232.72;;;21.94;100.00
59608;BME280;45426;44.726;10.390;2023-07-28T02:08:48;100243.50;;;21.84;100.00
59608;BME280;45426;44.726;10.390;2023-07-28T02:11:13;100243.19;;;21.79;100.00
59608;BME280;45426;44.726;10.390;2023-07-28T02:13:38;100247.03;;;21.88;100.00
59608;BME280;45426;44.726;10.390;2023-07-28T02:16:04;100246.75;;;21.79;100.00
59608;BME280;45426;44.726;10.390;2023-07-28T02:18:29;100243.97;;;21.79;100.00
59608;BME280;45426;44.726;10.390;2023-07-28T02:20:55;100245.38;;;21.95;100.00
59608;BME280;45426;44.726;10.390;2023-07-28T02:23:20;100244.91;;;22.00;100.00
59608;BME280;45426;44.726;10.390;2023-07-28T02:25:46;100239.56;;;21.85;100.00
59608;BME280;45426;44.726;10.390;2023-07-28T02:28:12;100240.59;;;21.64;100.00
59608;BME280;45426;44.726;10.390;2023-07-28T02:30:37;100248.19;;;21.57;100.00
59608;BME280;45426;44.726;10.390;2023-07-28T02:33:03;100254.97;;;21.48;100.00
59608;BME280;45426;44.726;10.390;2023-07-28T02:35:28;100253.78;;;21.49;100.00
59608;BME280;45426;44.726;10.390;2023-07-28T02:37:54;100247.53;;;21.45;100.00
59608;BME280;45426;44.726;10.390;2023-07-28T02:40:19;100249.84;;;21.05;100.00
59608;BME280;45426;44.726;10.390;2023-07-28T02:42:44;100247.63;;;21.31;100.00
59608;BME280;45426;44.726;10.390;2023-07-28T02:45:10;100249.59;;;21.34;100.00
59608;BME280;45426;44.726;10.390;2023-07-28T02:47:36;100234.66;;;21.66;100.00
59608;BME280;45426;44.726;10.390;2023-07-28T02:50:01;100241.34;;;21.68;100.00
59608;BME280;45426;44.726;10.390;2023-07-28T02:52:27;100237.31;;;21.35;100.00
59608;BME280;45426;44.726;10.390;2023-07-28T02:54:52;100229.47;;;21.30;100.00
59608;BME280;45426;44.726;10.390;2023-07-28T02:57:17;100224.91;;;21.54;100.00
59608;BME280;45426;44.726;10.390;2023-07-28T02:59:43;100228.38;;;21.62;100.00
59608;BME280;45426;44.726;10.390;2023-07-28T03:02:08;100238.63;;;21.65;100.00
59608;BME280;45426;44.726;10.390;2023-07-28T03:04:34;100243.22;;;21.75;100.00
59608;BME280;45426;44.726;10.390;2023-07-28T03:06:59;100237.22;;;21.49;100.00
59608;BME280;45426;44.726;10.390;2023-07-28T03:09:25;100238.03;;;21.46;100.00
59608;BME280;45426;44.726;10.390;2023-07-28T03:11:50;100238.81;;;21.81;100.00
59608;BME280;45426;44.726;10.390;2023-07-28T03:14:16;100257.00;;;21.41;100.00
59608;BME280;45426;44.726;10.390;2023-07-28T03:16:42;100252.34;;;21.34;100.00
59608;BME280;45426;44.726;10.390;2023-07-28T03:19:08;100254.34;;;21.71;100.00
59608;BME280;45426;44.726;10.390;2023-07-28T03:21:33;100260.22;;;21.32;100.00
59608;BME280;45426;44.726;10.390;2023-07-28T03:23:58;100251.22;;;21.28;100.00
59608;BME280;45426;44.726;10.390;2023-07-28T03:26:24;100244.06;;;20.89;100.00
59608;BME280;45426;44.726;10.390;2023-07-28T03:28:49;100236.19;;;20.87;100.00
59608;BME280;45426;44.726;10.390;2023-07-28T03:31:15;100247.28;;;20.84;100.00
59608;BME280;45426;44.726;10.390;2023-07-28T03:33:40;100253.44;;;21.02;100.00
59608;BME280;45426;44.726;10.390;2023-07-28T03:36:06;100262.28;;;20.79;100.00
59608;BME280;45426;44.726;10.390;2023-07-28T03:38:31;100257.28;;;20.56;100.00
59608;BME280;45426;44.726;10.390;2023-07-28T03:40:56;100251.47;;;20.40;100.00
59608;BME280;45426;44.726;10.390;2023-07-28T03:43:22;100242.75;;;20.52;100.00
59608;BME280;45426;44.726;10.390;2023-07-28T03:45:47;100251.97;;;20.87;100.00
59608;BME280;45426;44.726;10.390;2023-07-28T03:48:13;100248.69;;;20.47;100.00
59608;BME280;45426;44.726;10.390;2023-07-28T03:50:39;100243.13;;;20.54;100.00
59608;BME280;45426;44.726;10.390;2023-07-28T03:53:04;100240.50;;;20.92;100.00
59608;BME280;45426;44.726;10.390;2023-07-28T03:55:29;100242.09;;;21.31;100.00
59608;BME280;45426;44.726;10.390;2023-07-28T03:57:55;100243.31;;;20.85;100.00
59608;BME280;45426;44.726;10.390;2023-07-28T04:00:20;100244.22;;;20.67;100.00
59608;BME280;45426;44.726;10.390;2023-07-28T04:02:45;100251.34;;;20.65;100.00
59608;BME280;45426;44.726;10.390;2023-07-28T04:05:11;100246.28;;;20.52;100.00
59608;BME280;45426;44.726;10.390;2023-07-28T04:07:37;100256.56;;;20.45;100.00
59608;BME280;45426;44.726;10.390;2023-07-28T04:10:02;100266.66;;;20.77;100.00
59608;BME280;45426;44.726;10.390;2023-07-28T04:12:28;100267.13;;;20.64;100.00
59608;BME280;45426;44.726;10.390;2023-07-28T04:14:53;100266.22;;;20.82;100.00
59608;BME280;45426;44.726;10.390;2023-07-28T04:17:19;100270.34;;;21.08;100.00
59608;BME280;45426;44.726;10.390;2023-07-28T04:19:44;100273.94;;;21.01;100.00
59608;BME280;45426;44.726;10.390;2023-07-28T04:22:09;100272.78;;;20.99;100.00
59608;BME280;45426;44.726;10.390;2023-07-28T04:24:35;100277.84;;;21.04;100.00
59608;BME280;45426;44.726;10.390;2023-07-28T04:27:00;100270.03;;;20.99;100.00
59608;BME280;45426;44.726;10.390;2023-07-28T04:29:26;100262.50;;;21.48;100.00
59608;BME280;45426;44.726;10.390;2023-07-28T04:31:52;100264.69;;;21.64;100.00
59608;BME280;45426;44.726;10.390;2023-07-28T04:34:18;100264.47;;;21.47;100.00
59608;BME280;45426;44.726;10.390;2023-07-28T04:36:43;100256.34;;;21.67;100.00
59608;BME280;45426;44.726;10.390;2023-07-28T04:39:08;100258.00;;;21.61;100.00
59608;BME280;45426;44.726;10.390;2023-07-28T04:41:34;100266.91;;;21.76;100.00
59608;BME280;45426;44.726;10.390;2023-07-28T04:43:59;100274.84;;;21.74;100.00
59608;BME280;45426;44.726;10.390;2023-07-28T04:46:25;100267.78;;;21.69;100.00
59608;BME280;45426;44.726;10.390;2023-07-28T04:48:50;100270.41;;;21.80;100.00
59608;BME280;45426;44.726;10.390;2023-07-28T04:51:15;100267.41;;;22.02;100.00
59608;BME280;45426;44.726;10.390;2023-07-28T04:53:41;100264.84;;;22.18;100.00
59608;BME280;45426;44.726;10.390;2023-07-28T04:56:07;100270.22;;;22.29;100.00
59608;BME280;45426;44.726;10.390;2023-07-28T04:58:33;100277.34;;;22.30;100.00
59608;BME280;45426;44.726;10.390;2023-07-28T05:00:58;100272.84;;;22.40;100.00
59608;BME280;45426;44.726;10.390;2023-07-28T05:03:24;100273.63;;;22.40;100.00
59608;BME280;45426;44.726;10.390;2023-07-28T05:05:50;100277.25;;;22.64;100.00
59608;BME280;45426;44.726;10.390;2023-07-28T05:08:15;100278.19;;;22.23;100.00
59608;BME280;45426;44.726;10.390;2023-07-28T05:10:41;100276.69;;;22.19;100.00
59608;BME280;45426;44.726;10.390;2023-07-28T05:13:08;100274.03;;;22.39;100.00
59608;BME280;45426;44.726;10.390;2023-07-28T05:15:34;100274.78;;;22.12;100.00
59608;BME280;45426;44.726;10.390;2023-07-28T05:17:59;100285.56;;;22.03;100.00
59608;BME280;45426;44.726;10.390;2023-07-28T05:20:25;100287.97;;;22.01;100.00
59608;BME280;45426;44.726;10.390;2023-07-28T05:22:50;100293.06;;;22.37;100.00
59608;BME280;45426;44.726;10.390;2023-07-28T05:25:15;100293.44;;;22.66;100.00
59608;BME280;45426;44.726;10.390;2023-07-28T05:27:41;100293.69;;;22.48;100.00
59608;BME280;45426;44.726;10.390;2023-07-28T05:30:07;100293.41;;;22.39;100.00
59608;BME280;45426;44.726;10.390;2023-07-28T05:32:32;100303.47;;;22.56;100.00
59608;BME280;45426;44.726;10.390;2023-07-28T05:34:58;100303.56;;;22.49;100.00
59608;BME280;45426;44.726;10.390;2023-07-28T05:37:23;100308.97;;;22.29;100.00
59608;BME280;45426;44.726;10.390;2023-07-28T05:39:49;100312.78;;;22.08;100.00
59608;BME280;45426;44.726;10.390;2023-07-28T05:42:15;100301.56;;;22.49;100.00
59608;BME280;45426;44.726;10.390;2023-07-28T05:44:43;100300.06;;;22.72;100.00
59608;BME280;45426;44.726;10.390;2023-07-28T05:47:14;100304.06;;;22.71;100.00
59608;BME280;45426;44.726;10.390;2023-07-28T05:49:40;100308.06;;;22.66;100.00
59608;BME280;45426;44.726;10.390;2023-07-28T05:52:05;100311.31;;;22.61;100.00
59608;BME280;45426;44.726;10.390;2023-07-28T05:54:31;100308.09;;;22.36;100.00
59608;BME280;45426;44.726;10.390;2023-07-28T05:56:56;100313.78;;;22.56;100.00
59608;BME280;45426;44.726;10.390;2023-07-28T05:59:21;100313.09;;;22.75;100.00
59608;BME280;45426;44.726;10.390;2023-07-28T06:01:47;100314.09;;;22.61;100.00
59608;BME280;45426;44.726;10.390;2023-07-28T06:04:12;100310.00;;;22.70;100.00
59608;BME280;45426;44.726;10.390;2023-07-28T06:06:38;100302.84;;;22.72;100.00
59608;BME280;45426;44.726;10.390;2023-07-28T06:09:03;100309.47;;;23.05;100.00
59608;BME280;45426;44.726;10.390;2023-07-28T06:11:28;100316.72;;;22.96;100.00
59608;BME280;45426;44.726;10.390;2023-07-28T06:13:54;100318.16;;;23.08;100.00
59608;BME280;45426;44.726;10.390;2023-07-28T06:16:19;100313.09;;;23.26;100.00
59608;BME280;45426;44.726;10.390;2023-07-28T06:18:45;100312.44;;;23.18;100.00
59608;BME280;45426;44.726;10.390;2023-07-28T06:21:10;100314.69;;;23.00;100.00
59608;BME280;45426;44.726;10.390;2023-07-28T06:23:36;100317.09;;;23.25;100.00
59608;BME280;45426;44.726;10.390;2023-07-28T06:26:01;100323.75;;;23.51;100.00
59608;BME280;45426;44.726;10.390;2023-07-28T06:28:26;100329.97;;;23.59;100.00
59608;BME280;45426;44.726;10.390;2023-07-28T06:30:56;100330.09;;;23.52;100.00
59608;BME280;45426;44.726;10.390;2023-07-28T06:33:21;100330.84;;;23.52;100.00
59608;BME280;45426;44.726;10.390;2023-07-28T06:35:46;100335.97;;;23.30;100.00
59608;BME280;45426;44.726;10.390;2023-07-28T06:38:12;100335.31;;;23.22;100.00
59608;BME280;45426;44.726;10.390;2023-07-28T06:40:37;100344.19;;;23.61;100.00
59608;BME280;45426;44.726;10.390;2023-07-28T06:43:03;100348.84;;;23.64;100.00
59608;BME280;45426;44.726;10.390;2023-07-28T06:45:28;100346.38;;;23.70;100.00
59608;BME280;45426;44.726;10.390;2023-07-28T06:47:54;100349.69;;;23.84;100.00
59608;BME280;45426;44.726;10.390;2023-07-28T06:50:19;100358.75;;;23.89;100.00
59608;BME280;45426;44.726;10.390;2023-07-28T06:52:45;100356.63;;;24.16;100.00
59608;BME280;45426;44.726;10.390;2023-07-28T06:55:11;100359.47;;;23.93;100.00
59608;BME280;45426;44.726;10.390;2023-07-28T06:57:37;100346.97;;;24.61;100.00
59608;BME280;45426;44.726;10.390;2023-07-28T07:00:02;100343.81;;;25.61;100.00
59608;BME280;45426;44.726;10.390;2023-07-28T07:02:28;100341.88;;;25.29;100.00
59608;BME280;45426;44.726;10.390;2023-07-28T07:04:54;100350.34;;;24.32;100.00
59608;BME280;45426;44.726;10.390;2023-07-28T07:07:19;100343.94;;;24.55;100.00
59608;BME280;45426;44.726;10.390;2023-07-28T07:09:45;100357.50;;;24.13;100.00
59608;BME280;45426;44.726;10.390;2023-07-28T07:12:10;100354.78;;;24.10;100.00
59608;BME280;45426;44.726;10.390;2023-07-28T07:14:36;100345.63;;;24.49;100.00
59608;BME280;45426;44.726;10.390;2023-07-28T07:17:01;100345.19;;;24.87;100.00
59608;BME280;45426;44.726;10.390;2023-07-28T07:19:28;100346.78;;;24.88;100.00
59608;BME280;45426;44.726;10.390;2023-07-28T07:21:54;100341.88;;;25.74;100.00
59608;BME280;45426;44.726;10.390;2023-07-28T07:24:20;100333.47;;;27.36;100.00
59608;BME280;45426;44.726;10.390;2023-07-28T07:26:46;100333.97;;;26.57;100.00
59608;BME280;45426;44.726;10.390;2023-07-28T07:29:11;100334.09;;;27.05;100.00
59608;BME280;45426;44.726;10.390;2023-07-28T07:31:37;100347.97;;;27.43;100.00
59608;BME280;45426;44.726;10.390;2023-07-28T07:34:03;100361.88;;;25.53;100.00
59608;BME280;45426;44.726;10.390;2023-07-28T07:36:29;100362.97;;;25.43;100.00
59608;BME280;45426;44.726;10.390;2023-07-28T07:38:55;100370.75;;;25.15;100.00
59608;BME280;45426;44.726;10.390;2023-07-28T07:41:21;100365.50;;;26.12;100.00
59608;BME280;45426;44.726;10.390;2023-07-28T07:43:48;100372.53;;;25.87;100.00
59608;BME280;45426;44.726;10.390;2023-07-28T07:46:14;100370.97;;;25.41;100.00
59608;BME280;45426;44.726;10.390;2023-07-28T07:48:40;100365.53;;;25.17;100.00
59608;BME280;45426;44.726;10.390;2023-07-28T07:51:06;100370.91;;;25.08;100.00
59608;BME280;45426;44.726;10.390;2023-07-28T07:53:32;100375.75;;;24.87;100.00
59608;BME280;45426;44.726;10.390;2023-07-28T07:55:57;100383.19;;;25.10;100.00
59608;BME280;45426;44.726;10.390;2023-07-28T07:58:23;100377.69;;;26.31;100.00
59608;BME280;45426;44.726;10.390;2023-07-28T08:00:48;100374.78;;;29.04;100.00
59608;BME280;45426;44.726;10.390;2023-07-28T08:03:14;100370.31;;;28.76;100.00
59608;BME280;45426;44.726;10.390;2023-07-28T08:05:40;100362.63;;;30.04;100.00
59608;BME280;45426;44.726;10.390;2023-07-28T08:08:06;100361.56;;;29.92;100.00
59608;BME280;45426;44.726;10.390;2023-07-28T08:10:33;100363.59;;;30.00;100.00
59608;BME280;45426;44.726;10.390;2023-07-28T08:12:58;100372.97;;;28.79;100.00
59608;BME280;45426;44.726;10.390;2023-07-28T08:15:25;100376.81;;;27.27;100.00
59608;BME280;45426;44.726;10.390;2023-07-28T08:17:50;100379.78;;;29.96;100.00
59608;BME280;45426;44.726;10.390;2023-07-28T08:20:17;100386.38;;;28.09;100.00
59608;BME280;45426;44.726;10.390;2023-07-28T08:22:42;100386.56;;;28.15;100.00
59608;BME280;45426;44.726;10.390;2023-07-28T08:25:08;100383.13;;;28.55;100.00
59608;BME280;45426;44.726;10.390;2023-07-28T08:27:33;100373.78;;;28.26;100.00
59608;BME280;45426;44.726;10.390;2023-07-28T08:29:59;100382.00;;;28.83;100.00
59608;BME280;45426;44.726;10.390;2023-07-28T08:32:24;100385.75;;;28.80;100.00
59608;BME280;45426;44.726;10.390;2023-07-28T08:34:50;100387.69;;;29.70;100.00
59608;BME280;45426;44.726;10.390;2023-07-28T08:37:15;100372.59;;;30.14;100.00
59608;BME280;45426;44.726;10.390;2023-07-28T08:39:40;100381.28;;;28.61;100.00
59608;BME280;45426;44.726;10.390;2023-07-28T08:42:06;100383.41;;;28.79;100.00
59608;BME280;45426;44.726;10.390;2023-07-28T08:44:33;100376.41;;;29.24;100.00
59608;BME280;45426;44.726;10.390;2023-07-28T08:47:03;100366.53;;;29.78;100.00
59608;BME280;45426;44.726;10.390;2023-07-28T08:49:32;100373.19;;;30.18;100.00
59608;BME280;45426;44.726;10.390;2023-07-28T08:52:00;100376.16;;;30.05;100.00
59608;BME280;45426;44.726;10.390;2023-07-28T08:54:26;100381.63;;;29.90;100.00
59608;BME280;45426;44.726;10.390;2023-07-28T08:56:52;100374.88;;;29.41;100.00
59608;BME280;45426;44.726;10.390;2023-07-28T08:59:26;100368.72;;;29.93;100.00
59608;BME280;45426;44.726;10.390;2023-07-28T09:01:53;100373.03;;;29.57;100.00
59608;BME280;45426;44.726;10.390;2023-07-28T09:04:20;100358.13;;;30.15;100.00
59608;BME280;45426;44.726;10.390;2023-07-28T09:06:47;100363.88;;;31.06;100.00
59608;BME280;45426;44.726;10.390;2023-07-28T09:09:17;100362.84;;;30.52;100.00
59608;BME280;45426;44.726;10.390;2023-07-28T09:11:50;100362.28;;;30.90;100.00
59608;BME280;45426;44.726;10.390;2023-07-28T09:14:17;100361.44;;;30.90;100.00
59608;BME280;45426;44.726;10.390;2023-07-28T09:16:43;100362.69;;;30.55;100.00
59608;BME280;45426;44.726;10.390;2023-07-28T09:19:09;100355.91;;;30.81;100.00
59608;BME280;45426;44.726;10.390;2023-07-28T09:21:35;100365.94;;;31.06;100.00
59608;BME280;45426;44.726;10.390;2023-07-28T09:24:11;100351.38;;;30.41;100.00
59608;BME280;45426;44.726;10.390;2023-07-28T09:26:41;100360.09;;;30.85;100.00
59608;BME280;45426;44.726;10.390;2023-07-28T09:29:17;100352.97;;;30.75;100.00
59608;BME280;45426;44.726;10.390;2023-07-28T09:31:44;100354.81;;;31.35;100.00
59608;BME280;45426;44.726;10.390;2023-07-28T09:34:10;100349.78;;;30.91;100.00
59608;BME280;45426;44.726;10.390;2023-07-28T09:36:36;100338.66;;;30.12;100.00
59608;BME280;45426;44.726;10.390;2023-07-28T09:39:04;100349.03;;;30.30;100.00
59608;BME280;45426;44.726;10.390;2023-07-28T09:41:34;100345.06;;;29.75;100.00
59608;BME280;45426;44.726;10.390;2023-07-28T09:44:00;100348.78;;;29.63;100.00
59608;BME280;45426;44.726;10.390;2023-07-28T09:46:28;100356.84;;;28.83;100.00
59608;BME280;45426;44.726;10.390;2023-07-28T09:48:56;100346.28;;;30.11;100.00
59608;BME280;45426;44.726;10.390;2023-07-28T09:51:29;100342.56;;;30.66;100.00
59608;BME280;45426;44.726;10.390;2023-07-28T09:54:03;100336.47;;;30.34;100.00
59608;BME280;45426;44.726;10.390;2023-07-28T09:56:30;100333.34;;;30.32;100.00
59608;BME280;45426;44.726;10.390;2023-07-28T09:58:57;100339.69;;;30.85;100.00
59608;BME280;45426;44.726;10.390;2023-07-28T10:01:23;100332.31;;;31.21;100.00
59608;BME280;45426;44.726;10.390;2023-07-28T10:03:50;100338.53;;;31.49;100.00
59608;BME280;45426;44.726;10.390;2023-07-28T10:06:16;100341.00;;;30.65;100.00
59608;BME280;45426;44.726;10.390;2023-07-28T10:08:43;100336.06;;;30.60;100.00
59608;BME280;45426;44.726;10.390;2023-07-28T10:11:11;100332.09;;;31.09;100.00
59608;BME280;45426;44.726;10.390;2023-07-28T10:13:41;100325.69;;;31.33;100.00
59608;BME280;45426;44.726;10.390;2023-07-28T10:16:11;100323.19;;;31.59;100.00
59608;BME280;45426;44.726;10.390;2023-07-28T10:18:40;100316.78;;;31.59;100.00
59608;BME280;45426;44.726;10.390;2023-07-28T10:21:10;100319.66;;;30.16;100.00
59608;BME280;45426;44.726;10.390;2023-07-28T10:23:41;100329.34;;;29.59;100.00
59608;BME280;45426;44.726;10.390;2023-07-28T10:26:06;100322.19;;;29.49;100.00
59608;BME280;45426;44.726;10.390;2023-07-28T10:28:37;100320.78;;;30.61;100.00
59608;BME280;45426;44.726;10.390;2023-07-28T10:31:11;100305.09;;;29.84;100.00
59608;BME280;45426;44.726;10.390;2023-07-28T10:33:38;100315.06;;;30.46;100.00
59608;BME280;45426;44.726;10.390;2023-07-28T10:39:17;100310.56;;;31.54;100.00
59608;BME280;45426;44.726;10.390;2023-07-28T10:44:29;100308.09;;;31.71;100.00
59608;BME280;45426;44.726;10.390;2023-07-28T10:46:55;100311.00;;;31.92;100.00
59608;BME280;45426;44.726;10.390;2023-07-28T10:49:21;100308.59;;;32.00;100.00
59608;BME280;45426;44.726;10.390;2023-07-28T10:51:46;100308.22;;;32.22;100.00
59608;BME280;45426;44.726;10.390;2023-07-28T10:54:12;100310.66;;;32.29;100.00
59608;BME280;45426;44.726;10.390;2023-07-28T10:56:42;100315.41;;;32.38;100.00
59608;BME280;45426;44.726;10.390;2023-07-28T10:59:07;100318.38;;;32.49;100.00
59608;BME280;45426;44.726;10.390;2023-07-28T11:01:34;100314.81;;;32.19;100.00
59608;BME280;45426;44.726;10.390;2023-07-28T11:04:26;100319.19;;;32.05;100.00
59608;BME280;45426;44.726;10.390;2023-07-28T11:06:51;100321.31;;;31.32;100.00
59608;BME280;45426;44.726;10.390;2023-07-28T11:09:19;100324.88;;;30.84;100.00
59608;BME280;45426;44.726;10.390;2023-07-28T11:11:45;100326.28;;;30.46;100.00
59608;BME280;45426;44.726;10.390;2023-07-28T11:14:11;100316.81;;;30.44;100.00
59608;BME280;45426;44.726;10.390;2023-07-28T11:16:38;100318.16;;;31.63;100.00
59608;BME280;45426;44.726;10.390;2023-07-28T11:19:08;100307.19;;;31.50;100.00
59608;BME280;45426;44.726;10.390;2023-07-28T11:21:39;100309.59;;;30.85;100.00
59608;BME280;45426;44.726;10.390;2023-07-28T11:24:09;100303.28;;;31.48;100.00
59608;BME280;45426;44.726;10.390;2023-07-28T11:26:35;100293.38;;;31.91;100.00
59608;BME280;45426;44.726;10.390;2023-07-28T11:29:01;100295.81;;;31.99;100.00
59608;BME280;45426;44.726;10.390;2023-07-28T11:31:27;100291.84;;;32.20;100.00
59608;BME280;45426;44.726;10.390;2023-07-28T11:33:53;100295.72;;;31.78;100.00
59608;BME280;45426;44.726;10.390;2023-07-28T11:36:26;100280.38;;;31.64;100.00
59608;BME280;45426;44.726;10.390;2023-07-28T11:38:53;100282.25;;;31.97;100.00
59608;BME280;45426;44.726;10.390;2023-07-28T11:41:20;100281.59;;;32.17;100.00
59608;BME280;45426;44.726;10.390;2023-07-28T11:43:47;100278.25;;;31.74;100.00
59608;BME280;45426;44.726;10.390;2023-07-28T11:49:12;100267.13;;;31.95;100.00
59608;BME280;45426;44.726;10.390;2023-07-28T11:51:43;100269.25;;;30.92;100.00
59608;BME280;45426;44.726;10.390;2023-07-28T11:54:14;100263.19;;;31.08;100.00
59608;BME280;45426;44.726;10.390;2023-07-28T11:56:44;100264.72;;;31.87;100.00
59608;BME280;45426;44.726;10.390;2023-07-28T11:59:11;100265.81;;;32.55;100.00
59608;BME280;45426;44.726;10.390;2023-07-28T12:01:58;100259.81;;;32.47;100.00
59608;BME280;45426;44.726;10.390;2023-07-28T12:04:50;100261.69;;;32.71;100.00
59608;BME280;45426;44.726;10.390;2023-07-28T12:07:18;100259.41;;;32.69;100.00
59608;BME280;45426;44.726;10.390;2023-07-28T12:09:48;100263.88;;;32.61;100.00
59608;BME280;45426;44.726;10.390;2023-07-28T12:12:21;100263.13;;;32.46;100.00
59608;BME280;45426;44.726;10.390;2023-07-28T12:14:48;100266.72;;;32.82;100.00
59608;BME280;45426;44.726;10.390;2023-07-28T12:17:18;100261.91;;;32.88;100.00
59608;BME280;45426;44.726;10.390;2023-07-28T12:20:07;100252.09;;;32.78;100.00
59608;BME280;45426;44.726;10.390;2023-07-28T12:22:45;100259.81;;;32.62;100.00
59608;BME280;45426;44.726;10.390;2023-07-28T12:25:11;100261.34;;;32.63;100.00
59608;BME280;45426;44.726;10.390;2023-07-28T12:27:37;100259.41;;;32.69;100.00
59608;BME280;45426;44.726;10.390;2023-07-28T12:30:04;100255.59;;;32.22;100.00
59608;BME280;45426;44.726;10.390;2023-07-28T12:32:29;100252.69;;;31.18;100.00
59608;BME280;45426;44.726;10.390;2023-07-28T12:34:55;100240.97;;;31.20;100.00
59608;BME280;45426;44.726;10.390;2023-07-28T12:37:20;100220.56;;;31.19;100.00
59608;BME280;45426;44.726;10.390;2023-07-28T12:39:47;100223.66;;;31.60;100.00
59608;BME280;45426;44.726;10.390;2023-07-28T12:42:13;100211.47;;;32.08;100.00